This is the latest recevied weather packets stored in our database for station/object 9M4RBN-3. If no packets are shown the sender has not sent any weather packets the latest 10 day(s).
| Time | Temp. | Humidity | Pressure | Rain* | Wind** | Luminosity | Snow |
|---|---|---|---|---|---|---|---|
| 1787796245 | 26.67° C | 84% | 1019.1 hPa | - | - | - | - |
| 1787795345 | 26.67° C | 84% | 1019.1 hPa | - | - | - | - |
| 1787794445 | 26.11° C | 82% | 1019.1 hPa | - | - | - | - |
| 1787793545 | 26.11° C | 82% | 1018.9 hPa | - | - | - | - |
| 1787792645 | 26.11° C | 81% | 1018.5 hPa | - | - | - | - |
| 1787791745 | 26.11° C | 80% | 1018.3 hPa | - | - | - | - |
| 1787790845 | 26.11° C | 79% | 1018.1 hPa | - | - | - | - |
| 1787789945 | 25.56° C | 77% | 1018.1 hPa | - | - | - | - |
| 1787789045 | 25.56° C | 77% | 1018 hPa | - | - | - | - |
| 1787788144 | 25.56° C | 78% | 1018.1 hPa | - | - | - | - |
| 1787787244 | 25.56° C | 77% | 1018.1 hPa | - | - | - | - |
| 1787786344 | 25° C | 76% | 1018.2 hPa | - | - | - | - |
| 1787785444 | 24.44° C | 75% | 1018.2 hPa | - | - | - | - |
| 1787784544 | 23.89° C | 73% | 1018 hPa | - | - | - | - |
| 1787783644 | 23.33° C | 58% | 1017.9 hPa | - | - | - | - |
| 1787782744 | 23.33° C | 48% | 1017.8 hPa | - | - | - | - |
| 1787781844 | 23.33° C | 47% | 1017.8 hPa | - | - | - | - |
| 1787780944 | 23.33° C | 48% | 1017.7 hPa | - | - | - | - |
| 1787780044 | 23.89° C | 47% | 1017.6 hPa | - | - | - | - |
| 1787779144 | 23.89° C | 47% | 1017.7 hPa | - | - | - | - |
| 1787778244 | 24.44° C | 46% | 1017.7 hPa | - | - | - | - |
| 1787777344 | 25° C | 47% | 1017.6 hPa | - | - | - | - |
| 1787776444 | 25.56° C | 49% | 1017.7 hPa | - | - | - | - |
| 1787775544 | 26.67° C | 58% | 1017.5 hPa | - | - | - | - |
| 1787774644 | 27.22° C | 73% | 1017.5 hPa | - | - | - | - |
* Rain since midnight (hover to see other rain measurements)
** Current wind speed in m/s (hover to see current wind gust speed)